Clearfield, PA

6:49 AM EDT on July 13, 2014 (GMT -0400)
Clearfield-Lawrence (KFIG) Elev 1516 ft | 41.05 °N, 78.41 °W | Change Station

Current weather conditions updated 14 minutes ago

Clear
Clear
62 °F
Feels Like 62 °F
N
4
Wind Variable Wind from North

Today is forecast to be nearly the same temperature as yesterday. Thunderstorms developing in the afternoon.

Today
High -- | Low -- °F
--% Chance of Precip.
Yesterday
High -- | Low -- °F
Precip. -- in
5:52 AM 8:45 PM
Full, 99% visible
Pressure 30.03 in
Visibility 2.0 miles
Clouds Clear
Dew Point 61 °F
Humidity 96%
Rainfall 0.00 in
Snow Depth Not available.
UV 0 out of 12
Pollen 3.50 out of 12
Air Quality Not available.
Flu Activity Sporadic
SPECI KFIG 131035Z AUTO 36003KT 2SM BR CLR 17/16 A3003 RMK AO2 T01670161

More Conditions Fewer Conditions

Pressure 30.03 in
Visibility 2.0 miles
Clouds Clear
Dew Point 61 °F
Humidity 96%
Rainfall 0.00 in
Snow Depth Not available.
UV 0 out of 12
Pollen 3.50 out of 12
Air Quality Not available.
Flu Activity Sporadic
SPECI KFIG 131035Z AUTO 36003KT 2SM BR CLR 17/16 A3003 RMK AO2 T01670161

More Conditions Fewer Conditions

10-Day Weather Forecast

Almanac

Astronomy

Jul. 13, 2014 Rise Set
Actual Time 5:52 AM EDT 8:45 PM EDT
Civil Twilight 5:20 AM EDT 9:18 PM EDT
Nautical Twilight 4:38 AM EDT 9:59 PM EDT
Astronomical Twilight 3:50 AM EDT 10:47 PM EDT
Moon 9:31 PM EDT 7:22 AM EDT
Length of Visible Light 15h 58m
Length of Day
14h 52m
Tomorrow will be 1m 19s shorter.
Full, 99% of the Moon is Illuminated
Today
Full
Jul 18
Last Quarter
Jul 26
New
Aug 3
First Quarter
Aug 10
Full

Today's Extremes

State Highs State Lows

Community

WunderPhotos

Upload Photos

1,733,151 photos uploaded!

Nearby

Snow Depth

Station Depth Elevation
No new snow has been reported.

Earthquake Activity

City Distance Mag. Time & Date
No recent earthquake activity has been reported nearby.
Minimum magnitude displayed is 2.5.

Coastal Water Temperatures

Place Temperature
No Stations Reporting

Nearby Weather Stations

Station Location Temp. Dew Point Humidity Wind Precip. Elev Updated Type
RAWS KENNEDY PRESERVE PA, Penfield, PA 67 °F 58 °F 73% SW  at  7 mph 0.00 in / hr 2121 ft 6:08 AM EDT MADIS
Holly Terrace, Falls Creek, PA 62.6 °F 62 °F 98% NW  at  0.0 mph 0.00 in / hr 1473 ft 6:49 AM EDT Rapid Fire

Show More Stations Show Fewer Stations